Flight Track Log - Related Links

Times and Time Zones

All times are in EDT time to prevent confusion due to time zone crossing. See the AWE491 flight status page for this flight to view local times or setup timezone preferences in your user account.

Time Position Orientation Groundspeed Altitude Reporting Facility
EDT Latitude Longitude Course Direction KTS MPH feet Rate Location/Type
Thu 11:01:15 AM 33.3198 -111.8899 269° West 281 323 10,400  Level FlightAware ADS-B
Thu 11:01:44 AM 33.3267 -111.9469 281° West 297 342 11,100 1,268 Climbing FlightAware ADS-B
Thu 11:02:26 AM 33.3324 -111.9845 280° West 347 399 11,900 1,500 Climbing FlightAware ADS-B
Thu 11:03:12 AM 33.3484 -112.0928 280° West 367 422 13,300 2,019 Climbing FlightAware ADS-B
Thu 11:04:10 AM 33.3680 -112.2274 280° West 370 426 15,400 2,139 Climbing FlightAware ADS-B (VRMM / MLE)
Thu 11:04:53 AM 33.3812 -112.3187 280° West 379 436 16,900 2,053 Climbing FlightAware ADS-B (VRMM / MLE)
Thu 11:05:26 AM 33.3913 -112.3877 280° West 390 449 18,000 2,182 Climbing FlightAware ADS-B (VRMM / MLE)
Thu 11:05:59 AM 33.4013 -112.4573 280° West 388 447 19,300 2,095 Climbing FlightAware ADS-B (VRMM / MLE)
Thu 11:06:29 AM 33.4104 -112.5210 280° West 394 453 20,200 1,792 Climbing FlightAware ADS-B (VRMM / MLE)
Thu 11:07:16 AM 33.4248 -112.6222 280° West 397 457 21,600 1,481 Climbing FlightAware ADS-B (VRMM / MLE)
Thu 11:07:46 AM 33.4344 -112.6897 280° West 409 471 22,100 800 Climbing FlightAware ADS-B (VRMM / MLE)
Thu 11:08:16 AM 33.4436 -112.7553 280° West 423 487 22,400 1,213 Climbing FlightAware ADS-B (VRMM / MLE)
Thu 11:09:15 AM 33.4772 -112.8902 290° West 426 490 23,900 1,570 Climbing FlightAware ADS-B (VRMM / MLE)
Thu 11:10:03 AM 33.5150 -112.9960 292° West 421 484 25,200 2,250 Climbing FlightAware ADS-B (VRMM / MLE)
Thu 11:10:35 AM 33.5387 -113.0622 292° West 400 460 26,900 1,740 Climbing FlightAware ADS-B (VRMM / MLE)
Thu 11:11:43 AM 33.5803 -113.1808 292° West 416 479 28,100 1,108 Climbing Los Angeles Center
Thu 11:12:45 AM 33.6328 -113.3244 294° West 402 463 29,300 919 Climbing Los Angeles Center
Thu 11:13:47 AM 33.6758 -113.4528 292° West 404 465 30,000 339 Climbing Los Angeles Center
Thu 11:14:49 AM 33.7200 -113.5817 292° West 411 473 30,000  Level Los Angeles Center
Thu 11:15:53 AM 33.7722 -113.7203 294° West 418 481 30,000  Level Albuquerque Center
Thu 11:21:16 AM 34.0180 -114.4348 292° West 382 440 30,000  Level FlightAware ADS-B (EPLL / LCJ)
Thu 11:21:55 AM 34.0438 -114.5101 291° West 370 426 30,000  Level FlightAware ADS-B (EPLL / LCJ)
Thu 11:23:37 AM 34.0991 -114.7096 281° West 373 429 30,000  Level FlightAware ADS-B (EPLL / LCJ)
Thu 11:24:16 AM 34.1034 -114.7917 271° West 374 430 30,000  Level FlightAware ADS-B (EPLL / LCJ)
Thu 11:25:54 AM 34.1060 -114.9958 271° West 373 429 30,000  Level FlightAware ADS-B (EPLL / LCJ)
Thu 11:26:30 AM 34.1068 -115.0703 271° West 373 429 30,000  Level FlightAware ADS-B (EPLL / LCJ)
Thu 11:27:02 AM 34.1075 -115.1387 271° West 374 430 30,000  Level FlightAware ADS-B (EPLL / LCJ)
Thu 11:27:36 AM 34.1082 -115.2089 271° West 374 430 30,000  Level FlightAware ADS-B (EPLL / LCJ)
Thu 11:28:17 AM 34.1090 -115.2943 271° West 373 429 30,000  Level FlightAware ADS-B (EPLL / LCJ)
Thu 11:28:49 AM 34.1096 -115.3603 271° West 373 429 30,000  Level FlightAware ADS-B (EPLL / LCJ)
Thu 11:29:30 AM 34.1102 -115.4447 271° West 371 427 30,000  Level FlightAware ADS-B (EPLL / LCJ)
Thu 11:30:06 AM 34.1107 -115.5185 271° West 370 426 30,000  Level FlightAware ADS-B (EPLL / LCJ)
Thu 11:30:44 AM 34.1113 -115.5964 270° West 370 426 30,000  Level FlightAware ADS-B (EPLL / LCJ)
Thu 11:31:55 AM 34.1119 -115.7445 269° West 372 428 30,000 -106 Level FlightAware ADS-B (EPLL / LCJ)
Thu 11:32:37 AM 34.1032 -115.8309 260° West 369 425 29,800 -615 Descending FlightAware ADS-B (EPLL / LCJ)
Thu 11:33:13 AM 34.0926 -115.9025 261° West 352 405 29,200 -1,014 Descending FlightAware ADS-B (EPLL / LCJ)
Thu 11:33:48 AM 34.0829 -115.9685 261° West 347 399 28,600 -1,000 Descending FlightAware ADS-B (EPLL / LCJ)
Thu 11:34:25 AM 34.0722 -116.0406 261° West 348 400 28,000 -1,029 Descending FlightAware ADS-B (EPLL / LCJ)
Thu 11:34:58 AM 34.0627 -116.1041 260° West 347 399 27,400 -1,015 Descending FlightAware ADS-B (KBNG)
Thu 11:35:30 AM 34.0535 -116.1643 260° West 345 397 26,900 -911 Descending FlightAware ADS-B (KBNG)
Thu 11:36:17 AM 34.0437 -116.2295 260° West 341 392 26,200 -935 Descending FlightAware ADS-B (KBNG)
Thu 11:36:47 AM 34.0325 -116.3040 260° West 336 387 25,700 -1,000 Descending FlightAware ADS-B (KBNG)
Thu 11:37:29 AM 34.0201 -116.3858 260° West 333 383 25,000 -1,068 Descending FlightAware ADS-B (KBNG)
Thu 11:38:00 AM 34.0129 -116.4340 260° West 334 384 24,400 -1,043 Descending FlightAware ADS-B (KBNG)
Thu 11:38:38 AM 34.0035 -116.5099 265° West 333 383 23,800 -1,000 Descending FlightAware ADS-B
Thu 11:39:12 AM 33.9985 -116.5729 265° West 334 384 23,200 -1,014 Descending FlightAware ADS-B (KBNG)
Thu 11:39:49 AM 33.9935 -116.6350 265° West 331 381 22,600 -973 Descending FlightAware ADS-B
Thu 11:40:26 AM 33.9874 -116.7099 264° West 327 376 22,000 -1,000 Descending FlightAware ADS-B (KBNG)
Thu 11:41:07 AM 33.9816 -116.7825 265° West 325 374 21,300 -1,040 Descending FlightAware ADS-B
Thu 11:41:41 AM 33.9765 -116.8451 265° West 322 371 20,700 -1,031 Descending FlightAware ADS-B (KBNG)
Thu 11:42:11 AM 33.9722 -116.8974 265° West 322 371 20,200 -1,355 Descending FlightAware ADS-B (KBNG)
Thu 11:42:43 AM 33.9678 -116.9515 264° West 319 367 19,300 -1,645 Descending FlightAware ADS-B (KBNG)
Thu 11:43:13 AM 33.9632 -117.0062 264° West 315 362 18,500 -1,406 Descending FlightAware ADS-B (KBNG)
Thu 11:43:47 AM 33.9589 -117.0592 264° West 333 383 17,800 -1,500 Descending FlightAware ADS-B
Thu 11:44:21 AM 33.9526 -117.1328 264° West 351 404 16,800 -1,881 Descending FlightAware ADS-B (KBNG)
Thu 11:44:54 AM 33.9473 -117.1966 264° West 345 397 15,700 -1,313 Descending FlightAware ADS-B (KBNG)
Thu 11:45:25 AM 33.9428 -117.2496 264° West 342 394 15,400 -1,031 Descending FlightAware ADS-B
Thu 11:45:58 AM 33.9370 -117.3173 264° West 339 390 14,600 -1,294 Descending FlightAware ADS-B (KBNG)
Thu 11:46:16 AM 33.9343 -117.3492 265° West 337 388 14,300 -1,091 Descending FlightAware ADS-B
Thu 11:46:20 AM 33.9339 -117.3547 270° West 337 388 14,200 -1,500 Descending FlightAware ADS-B (KBNG)
Thu 11:46:28 AM 33.9345 -117.3724 281° West 334 384 14,000 -1,000 Descending FlightAware ADS-B (KBNG)
Thu 11:46:50 AM 33.9443 -117.4075 293° West 321 369 13,700 -667 Descending FlightAware ADS-B
Thu 11:46:55 AM 33.9468 -117.4146 293° West 318 366 13,700 -686 Level FlightAware ADS-B
Thu 11:47:25 AM 33.9642 -117.4638 293° West 299 344 13,300 -1,000 Descending FlightAware ADS-B
Thu 11:47:55 AM 33.9784 -117.5040 293° West 291 335 12,700 -1,610 Descending FlightAware ADS-B
Thu 11:48:06 AM 33.9852 -117.5234 293° West 293 337 12,200 -941 Descending FlightAware ADS-B
Thu 11:48:46 AM 34.0070 -117.5847 293° West 294 338 11,900 -409 Descending FlightAware ADS-B
Thu 11:48:50 AM 34.0097 -117.5926 291° West 295 339 11,900  Level FlightAware ADS-B
Thu 11:48:54 AM 34.0105 -117.5957 273° West 295 339 11,900  Level FlightAware ADS-B
Thu 11:49:07 AM 34.0127 -117.6098 291° West 295 339 11,900 -400 Level FlightAware ADS-B
Thu 11:49:24 AM 34.0104 -117.6455 273° West 295 339 11,700 -1,429 Descending FlightAware ADS-B
Thu 11:49:49 AM 34.0062 -117.6890 264° West 293 337 10,900 -1,759 Descending FlightAware ADS-B
Thu 11:50:22 AM 34.0017 -117.7354 264° West 291 335 10,000 -1,698 Descending FlightAware ADS-B
Thu 11:50:42 AM 33.9980 -117.7736 263° West 289 333 9,400 -1,846 Descending FlightAware ADS-B
Thu 11:50:48 AM 33.9969 -117.7851 264° West 289 333 9,200 -2,000 Descending FlightAware ADS-B
Thu 11:51:00 AM 33.9956 -117.7987 263° West 288 331 8,800 -1,929 Descending FlightAware ADS-B
Thu 11:51:16 AM 33.9927 -117.8288 264° West 289 333 8,300 -1,742 Descending FlightAware ADS-B
Thu 11:51:31 AM 33.9905 -117.8524 264° West 287 330 7,900 -1,500 Descending FlightAware ADS-B
Thu 11:51:32 AM 33.9902 -117.8556 263° West 288 331 7,900 -1,125 Level FlightAware ADS-B
Thu 11:51:47 AM 33.9880 -117.8777 264° West 286 329 7,600 -1,667 Descending FlightAware ADS-B
Thu 11:51:50 AM 33.9874 -117.8844 263° West 285 328 7,400 -1,579 Descending FlightAware ADS-B
Thu 11:52:06 AM 33.9851 -117.9072 264° West 281 323 7,100 -1,161 Descending FlightAware ADS-B
Thu 11:52:21 AM 33.9824 -117.9329 264° West 275 316 6,800 -2,000 Descending FlightAware ADS-B
Thu 11:52:24 AM 33.9823 -117.9344 263° West 275 316 6,500 -2,000 Descending FlightAware ADS-B
Thu 11:52:42 AM 33.9795 -117.9633 264° West 275 316 6,100 -1,571 Descending FlightAware ADS-B
Thu 11:53:06 AM 33.9760 -117.9977 263° West 278 320 5,400 -1,286 Descending FlightAware ADS-B
Thu 11:53:24 AM 33.9730 -118.0277 264° West 267 307 5,200 -828 Descending FlightAware ADS-B
Thu 11:53:35 AM 33.9714 -118.0451 264° West 260 299 5,000 -522 Descending FlightAware ADS-B
Thu 11:53:47 AM 33.9699 -118.0607 264° West 258 297 5,000 -286 Level FlightAware ADS-B
Thu 11:53:56 AM 33.9687 -118.0737 263° West 242 278 4,900 -250 Descending FlightAware ADS-B
Thu 11:54:11 AM 33.9668 -118.0926 264° West 230 265 4,900 -581 Level FlightAware ADS-B
Thu 11:54:27 AM 33.9648 -118.1126 264° West 226 260 4,600 -1,200 Descending FlightAware ADS-B
Thu 11:54:41 AM 33.9633 -118.1275 263° West 225 259 4,300 -1,636 Descending FlightAware ADS-B
Thu 11:54:49 AM 33.9619 -118.1400 263° West 227 261 4,000 -1,846 Descending FlightAware ADS-B
Thu 11:54:54 AM 33.9613 -118.1461 263° West 225 259 3,900 -1,200 Descending FlightAware ADS-B
Thu 11:55:09 AM 33.9593 -118.1658 263° West 224 258 3,600 -1,167 Descending FlightAware ADS-B
Thu 11:55:30 AM 33.9568 -118.1900 263° West 214 246 3,200 -1,273 Descending FlightAware ADS-B
Thu 11:55:42 AM 33.9554 -118.2040 264° West 208 239 2,900 -1,200 Descending FlightAware ADS-B
Thu 11:55:55 AM 33.9539 -118.2186 263° West 202 232 2,700 -947 Descending FlightAware ADS-B
Thu 11:56:01 AM 33.9533 -118.2250 263° West 201 231 2,600 -1,125 Descending FlightAware ADS-B
Thu 11:56:11 AM 33.9525 -118.2330 264° West 193 222 2,400 -1,200 Descending FlightAware ADS-B
Thu 11:56:21 AM 33.9510 -118.2475 263° West 186 214 2,200 -1,200 Descending FlightAware ADS-B
Thu 11:56:26 AM 33.9506 -118.2516 264° West 191 220 2,100 -906 Descending FlightAware ADS-B
Thu 11:57:14 AM 33.9458 -118.2991 263° West 157 181 1,400 -837 Descending FlightAware ADS-B
Thu 11:57:52 AM 33.9426 -118.3313 263° West 149 171 900 -814 Descending FlightAware ADS-B
Thu 11:58:13 AM 33.9408 -118.3486 263° West 148 170 600 -732 Descending FlightAware ADS-B
Thu 11:58:33 AM 33.9400 -118.3568 263° West 148 170 400 -348 Descending FlightAware ADS-B
Thu 11:59:22 AM 33.9631 -118.4081 263° West 185 213 200 -245 Descending Los Angeles Center
Thu 12:01:00 PM 33.9425 -118.4081 270° West  Level Estimated

Login

Don't have an account? Register now (free) for customized features, flight alerts, and more!